Главная страница
METAR-TAF:

METAR-TAF

Аэропорты :

Rafha, Саудовская Аравия

широта: 29-37N, долгота: 043-29E, высота над уровнем моря: 449 м

Текущие метеонаблюдения

Эта сводка был подготовлена 53 минут назад, в 13:00 UTC
Ветер 14 Узел от западный
Температура 15°C
Влажность 25%
Давление 1018 hPa
Видимость 10 км и более
Нет облачности ниже 1500 м, и нет кучево-дождевой облачности

METAR: OERF 081300Z 28014KT CAVOK 15/M05 Q1018 NOSIG

Время: 16:53 (13:53 UTC)

Прогноз

Эта сводка был подготовлена 2 часа и 53 минут назад, в 11:00 UTC
Прогноз действительный с 08-го 12 UTC до 09-го 18 UTC
Ветер 15 Узел от западный
Видимость: 7000 м
изменения
С 08-го 20 UTC до 08-го 22 UTC
Ветер 3 Узел переменных направлений
изменения
С 09-го 06 UTC до 09-го 08 UTC
Ветер 10 Узел от северно-северо-западный

TAF: OERF 081100Z 0812/0918 28015KT 7000 NSC BECMG 0820/0822 VRB03KT BECMG 0906/0908 33010KT

Метеонаблюдения и прогнозы для более 4000 аэропортов (сводки METAR и TAF).

Имеющиеся станции представлены на карте желтыми и красными точками.

Чтобы увидеть название станции, наведите на нее мышь.

Затем щелкните, чтобы увидеть метеонаблюдения и метеопрогнозы.

Управление картой: чтобы увеличить масштаб, щелкните зеленые кнопки с черным крестиком; чтобы уменьшить масштаб, щелкните зеленую кнопку с тире; для просмотра соседних карт щелкайте зеленые стрелки.


METAR-TAF: